Amarillo, TX

6:19 AM CDT on October 24, 2014 (GMT -0500)
Moore County | Change Station
CLOSE
Current Station
Airport
Location: Dumas,
Elevation: 3704 ft
Nearby Weather Stations

Elev 3704 ft 35.86 °N, 102.01 °W | Updated 24 minutes ago

Clear
Clear
48 °F
Feels Like 48 °F
N
7
Wind Variable Wind from West

Today
High -- | Low -- °F
--% Chance of Precip.
Yesterday
High -- | Low -- °F
Precip. -- in
8:01 AM 7:01 PM
New Moon, 0% visible
Pressure 30.11 in
Visibility 7.0 miles
Clouds Clear
Dew Point 47 °F
Humidity 95%
Rainfall 0.00 in
Snow Depth Not available.
UV 0 out of 12
Pollen 6.30 out of 12
Air Quality Not available.
Flu Activity Sporadic
METAR KDUX 241055Z AUTO 28006KT 7SM CLR 09/08 A3011 RMK AO2 T00900082

More Conditions Fewer Conditions

Pressure 30.11 in
Visibility 7.0 miles
Clouds Clear
Dew Point 47 °F
Humidity 95%
Rainfall 0.00 in
Snow Depth Not available.
UV 0 out of 12
Pollen 6.30 out of 12
Air Quality Not available.
Flu Activity Sporadic
METAR KDUX 241055Z AUTO 28006KT 7SM CLR 09/08 A3011 RMK AO2 T00900082

More Conditions Fewer Conditions

10-Day Weather Forecast

Almanac

Astronomy

Oct. 24, 2014 Rise Set
Actual Time 8:01 AM CDT 7:01 PM CDT
Civil Twilight 7:35 AM CDT 7:27 PM CDT
Nautical Twilight 7:05 AM CDT 7:56 PM CDT
Astronomical Twilight 6:36 AM CDT 8:26 PM CDT
Moon 8:41 AM CDT 7:44 PM CDT
Length of Visible Light 11h 51m
Length of Day
10h 59m
Tomorrow will be 2m 2s shorter.
New Moon, 0% of the Moon is Illuminated
Today
New Moon
Oct 30
First Quarter
Nov 6
Full
Nov 14
Last Quarter
Nov 22
New

Today's Extremes

State Highs State Lows

Community

WunderPhotos

Upload Photos

1,764,518 photos uploaded!

WunderBlogs® & News

Nearby

Snow Depth

Station Depth Elevation
No new snow has been reported.

Earthquake Activity

City Distance Mag. Time & Date
No recent earthquake activity has been reported nearby.
Minimum magnitude displayed is 2.5.

Coastal Water Temperatures

Place Temperature
No Stations Reporting

Nearby Weather Stations